Alexandra — WDD5677 — position and weather

sailwx.info

Track history (hours):
 
Tides and Currents Weather Stations Pressure Air Temp Water Temp Dewpoint Dewpoint Depression Visibility Wind Speed Wind Dir Waves Ship Positions

Alexandra

Owner: Weeks Marine, Inc., Cranford, NJ. More information available from US FCC via Universal Licensing System and Coast Guard Vessel Documentation Center.

Last reported at 2016-Jun-25 02:12 UTC. Time now 2016-Jun-30 23:15 UTC.
Position N 29°33' W 094°55'.

Length 40 m; draft 5 m.

Type: Tug. MMSI: 367161950.

Date/timePositionNaut miles runAvg speedWind from/ knotsBaromVisibWave heightAir tempDewpointWater temp
2016-Jun-25 02:12N 29°33' W 094°55'4 6.1
2016-Jun-25 01:33N 29°36' W 094°57'5 5.1
2016-Jun-25 00:33N 29°41' W 094°60'1 0.7
2016-Jun-24 23:33N 29°41' W 095°00'0 0.0
2016-Jun-24 22:32N 29°41' W 095°00'0 0.0
2016-Jun-24 21:33N 29°41' W 095°00'0 0.0
2016-Jun-24 20:33N 29°41' W 095°00'0 0.0
2016-Jun-24 19:33N 29°41' W 095°00'1 1.1
2016-Jun-24 18:33N 29°41' W 094°59'5 1.2
2016-Jun-24 14:24N 29°45' W 095°04'4 5.3
2016-Jun-24 13:33N 29°41' W 095°00'0 0.1
2016-Jun-24 12:33N 29°41' W 095°00'0 0.0
2016-Jun-24 11:33N 29°41' W 095°00'0 0.0
2016-Jun-24 10:33N 29°41' W 095°00'0 0.0
2016-Jun-24 09:31N 29°41' W 095°00'0 0.0
2016-Jun-24 08:33N 29°41' W 095°00'0 0.0
2016-Jun-24 07:33N 29°41' W 095°00'5 1.5
2016-Jun-24 04:33N 29°45' W 095°04'0 0.0
2016-Jun-24 02:15N 29°45' W 095°04'4 5.1
2016-Jun-24 01:33N 29°42' W 095°01'1 1.5
2016-Jun-24 00:33N 29°41' W 094°59'0 0.0
2016-Jun-23 23:33N 29°41' W 094°59'1 0.9
2016-Jun-23 22:33N 29°41' W 095°00'3 3.4
2016-Jun-23 21:33N 29°44' W 095°02'1 0.7
2016-Jun-23 19:30N 29°45' W 095°04'4 4.5
2016-Jun-23 18:33N 29°42' W 095°00'1 0.9
2016-Jun-23 17:33N 29°41' W 094°59'0 0.4
2016-Jun-23 16:33N 29°41' W 094°59'4 3.7
2016-Jun-23 15:33N 29°44' W 095°02'2 1.3
2016-Jun-23 14:23N 29°45' W 095°04'1 0.9
2016-Jun-23 13:20N 29°44' W 095°03'1 0.8
2016-Jun-23 12:19N 29°44' W 095°02'3 1.9
2016-Jun-23 10:33N 29°41' W 094°59'3 2.9
2016-Jun-23 09:33N 29°44' W 095°01'2 1.6
2016-Jun-23 08:09N 29°45' W 095°04'3 4.0
2016-Jun-23 07:30N 29°43' W 095°01'3 1.3
2016-Jun-23 05:33N 29°41' W 094°59'5 2.4
2016-Jun-23 03:26N 29°45' W 095°04'5 5.8
2016-Jun-23 02:33N 29°41' W 094°59'0 0.0
2016-Jun-23 01:33N 29°41' W 094°59'4 1.8
2016-Jun-22 23:31N 29°44' W 095°02'4 3.8
2016-Jun-22 22:32N 29°41' W 094°59'0 0.3
2016-Jun-22 21:33N 29°41' W 094°59'5 4.7
2016-Jun-22 20:33N 29°44' W 095°03'1 0.7
2016-Jun-22 19:16N 29°44' W 095°02'4 5.1
2016-Jun-22 18:33N 29°41' W 094°59'0 0.0
2016-Jun-22 17:33N 29°41' W 094°59'5 4.9
2016-Jun-22 16:33N 29°45' W 095°04'0 0.0
2016-Jun-22 10:08N 29°45' W 095°04'0 0.0
2016-Jun-22 08:30N 29°45' W 095°04'0 0.0
2016-Jun-22 07:29N 29°45' W 095°04'0 0.0
2016-Jun-22 06:31N 29°45' W 095°04'0 0.0
2016-Jun-22 05:31N 29°45' W 095°04'0 0.0
2016-Jun-22 04:33N 29°45' W 095°04'0 0.0
2016-Jun-22 03:30N 29°45' W 095°04'0 0.0
2016-Jun-22 01:31N 29°45' W 095°04'0 0.0
2016-Jun-22 00:28N 29°45' W 095°04'0 0.0
2016-Jun-21 23:33N 29°45' W 095°04'5 4.8
2016-Jun-21 22:32N 29°41' W 094°59'0 0.2
2016-Jun-21 21:29N 29°41' W 094°59'0 0.0
2016-Jun-21 20:33N 29°41' W 094°59'0 0.0
2016-Jun-21 19:30N 29°41' W 094°59'0 0.0
2016-Jun-21 18:33N 29°41' W 094°59'0 0.0
2016-Jun-21 17:33N 29°41' W 094°59'5 5.0
2016-Jun-21 16:32N 29°45' W 095°04'0 0.0
2016-Jun-21 15:30N 29°45' W 095°04'4 4.5
2016-Jun-21 14:33N 29°42' W 094°60'1 0.8
2016-Jun-21 13:33N 29°41' W 094°59'0 0.1
2016-Jun-21 12:33N 29°41' W 094°59'5 5.1
2016-Jun-21 11:33N 29°45' W 095°04'1 1.1
2016-Jun-21 10:28N 29°44' W 095°03'4 4.3
2016-Jun-21 09:33N 29°41' W 094°59'0 0.0
2016-Jun-21 08:33N 29°41' W 094°59'0 0.0
2016-Jun-21 01:31N 29°41' W 094°59'0 0.0
2016-Jun-21 00:33N 29°41' W 094°59'0 0.0
2016-Jun-20 23:33N 29°41' W 094°59'0 0.0
2016-Jun-20 22:33N 29°41' W 094°59'0 0.0
2016-Jun-20 21:33N 29°41' W 094°59'2 2.5
2016-Jun-20 20:33N 29°43' W 095°01'3 2.4
2016-Jun-20 19:24N 29°45' W 095°04'1 1.3
2016-Jun-20 18:27N 29°44' W 095°03'4 4.4
2016-Jun-20 17:33N 29°41' W 094°59'0 0.0
2016-Jun-20 16:32N 29°41' W 094°59'1 0.6
2016-Jun-20 15:33N 29°42' W 094°60'5 4.4
2016-Jun-20 14:31N 29°45' W 095°04'0 0.0
2016-Jun-20 13:33N 29°45' W 095°04'0 0.0
2016-Jun-20 12:33N 29°45' W 095°04'1 0.8
2016-Jun-20 11:32N 29°44' W 095°03'4 4.4
2016-Jun-20 10:33N 29°41' W 094°59'0 0.0
2016-Jun-20 09:33N 29°41' W 094°59'4 4.1
2016-Jun-20 08:33N 29°44' W 095°03'1 0.4
2016-Jun-20 06:31N 29°44' W 095°04'2 2.3
2016-Jun-20 05:31N 29°43' W 095°01'3 1.4
2016-Jun-20 03:33N 29°41' W 094°59'5 3.6
2016-Jun-20 02:07N 29°45' W 095°04'0 0.0
2016-Jun-20 01:06N 29°45' W 095°04'3 4.9
2016-Jun-20 00:33N 29°43' W 095°01'2 2.4
2016-Jun-19 23:32N 29°41' W 094°59'2 1.8
2016-Jun-19 22:32N 29°42' W 095°01'3 2.4
2016-Jun-19 21:08N 29°45' W 095°04'0 0.0
2016-Jun-19 20:32N 29°45' W 095°04'1 1.2
2016-Jun-19 19:24N 29°44' W 095°02'4 4.3
2016-Jun-19 18:33N 29°41' W 094°59'0 0.0
2016-Jun-19 17:32N 29°41' W 094°59'5 4.6
2016-Jun-19 16:33N 29°44' W 095°03'3 1.8
2016-Jun-19 14:33N 29°42' W 095°00'1 0.5
2016-Jun-19 12:33N 29°41' W 094°59'3 1.4
2016-Jun-19 10:19N 29°44' W 095°02'3 4.3
2016-Jun-19 09:33N 29°41' W 094°59'0 0.0
2016-Jun-19 08:33N 29°41' W 094°59'5 4.5
2016-Jun-19 07:33N 29°44' W 095°03'1 0.6
2016-Jun-19 06:29N 29°45' W 095°04'4 1.3
2016-Jun-19 03:33N 29°42' W 095°00'4 3.1
2016-Jun-19 02:18N 29°45' W 095°04'0 0.2
2016-Jun-19 01:27N 29°44' W 095°04'3 2.7
2016-Jun-19 00:30N 29°43' W 095°01'2 2.6
2016-Jun-18 23:33N 29°41' W 094°59'0 0.0
2016-Jun-18 22:33N 29°41' W 094°59'5 4.6
2016-Jun-18 21:26N 29°45' W 095°04'1 1.0
2016-Jun-18 20:13N 29°44' W 095°03'3 4.2
2016-Jun-18 19:33N 29°42' W 095°00'1 1.1
2016-Jun-18 18:33N 29°41' W 094°59'0 0.0
2016-Jun-18 17:34N 29°41' W 094°59'1 0.5
2016-Jun-18 16:33N 29°42' W 094°60'5 2.2
2016-Jun-18 14:26N 29°45' W 095°04'1 0.7
2016-Jun-18 13:33N 29°44' W 095°03'3 2.9
2016-Jun-18 12:33N 29°42' W 095°01'2 1.6
2016-Jun-18 11:33N 29°41' W 094°59'2 1.9
2016-Jun-18 10:32N 29°42' W 095°01'3 3.0
2016-Jun-18 09:28N 29°45' W 095°04'1 1.0
2016-Jun-18 08:23N 29°44' W 095°03'4 4.8
2016-Jun-18 07:32N 29°41' W 094°59'0 0.0
2016-Jun-18 06:33N 29°41' W 094°59'5 2.3
2016-Jun-18 04:22N 29°45' W 095°04'0 0.0
2016-Jun-18 03:31N 29°45' W 095°04'0 0.0
2016-Jun-17 23:24N 29°45' W 095°04'0 0.0
2016-Jun-17 20:25N 29°45' W 095°04'0 0.0
2016-Jun-17 19:28N 29°45' W 095°04'0 0.0
2016-Jun-17 18:33N 29°45' W 095°04'2 1.8
2016-Jun-17 17:30N 29°44' W 095°02'3 3.5
2016-Jun-17 16:33N 29°41' W 094°59'0 0.0
2016-Jun-17 15:33N 29°41' W 094°59'2 2.2
2016-Jun-17 14:33N 29°43' W 095°01'3 1.5
2016-Jun-17 12:33N 29°45' W 095°04'1 1.2
2016-Jun-17 11:25N 29°44' W 095°02'4 4.4
2016-Jun-17 10:33N 29°41' W 094°59'5 1.6
2016-Jun-17 07:25N 29°45' W 095°04'1 0.6
2016-Jun-17 06:09N 29°44' W 095°03'4 6.9
2016-Jun-17 05:32N 29°41' W 094°59'0 0.1
2016-Jun-17 04:33N 29°41' W 094°59'1 0.9
2016-Jun-17 03:33N 29°41' W 095°00'5 2.3
2016-Jun-17 01:33N 29°45' W 095°04'0 0.0
2016-Jun-17 00:33N 29°45' W 095°04'0 0.0
2016-Jun-16 23:33N 29°45' W 095°04'5 5.1
2016-Jun-16 22:33N 29°41' W 094°59'0 0.0
2016-Jun-16 21:33N 29°41' W 094°59'4 4.0
2016-Jun-16 20:33N 29°44' W 095°03'1 1.2
2016-Jun-16 19:33N 29°45' W 095°04'3 3.2
2016-Jun-16 18:33N 29°42' W 095°01'2 1.9
2016-Jun-16 17:33N 29°41' W 094°59'5 4.6
2016-Jun-16 16:28N 29°45' W 095°04'0 0.0
2016-Jun-16 15:08N 29°45' W 095°04'0 0.0
2016-Jun-16 13:15N 29°45' W 095°04'0 0.2
2016-Jun-16 12:33N 29°45' W 095°04'0 0.0
2016-Jun-16 11:32N 29°45' W 095°04'5 5.1
2016-Jun-16 10:32N 29°41' W 094°59'0 0.0
2016-Jun-16 09:34N 29°41' W 094°59'5 2.1
2016-Jun-16 07:08N 29°45' W 095°04'1 1.4
2016-Jun-16 06:27N 29°44' W 095°03'4 4.6
2016-Jun-16 05:33N 29°41' W 094°59'0 0.0
2016-Jun-16 04:33N 29°41' W 094°59'5 3.6
2016-Jun-16 03:08N 29°45' W 095°04'1 1.4
2016-Jun-16 02:30N 29°44' W 095°03'4 4.5
2016-Jun-16 01:33N 29°41' W 094°59'1 1.0
2016-Jun-16 00:31N 29°42' W 095°00'4 4.0
2016-Jun-15 23:31N 29°45' W 095°04'0 0.0
2016-Jun-15 22:31N 29°45' W 095°04'2 0.8
2016-Jun-15 19:31N 29°43' W 095°01'2 2.1
2016-Jun-15 18:20N 29°45' W 095°04'0 0.2
2016-Jun-15 17:29N 29°45' W 095°04'3 2.9
2016-Jun-15 16:33N 29°43' W 095°01'2 2.3
2016-Jun-15 15:33N 29°41' W 094°59'0 0.1
2016-Jun-15 14:33N 29°41' W 094°59'5 2.5
2016-Jun-15 12:32N 29°45' W 095°04'3 3.2
2016-Jun-15 11:33N 29°43' W 095°01'2 2.0
2016-Jun-15 10:33N 29°41' W 094°59'3 2.6
2016-Jun-15 09:33N 29°43' W 095°01'3 2.3
2016-Jun-15 08:27N 29°45' W 095°04'3 3.5
2016-Jun-15 07:33N 29°42' W 095°01'2 2.0
2016-Jun-15 06:33N 29°41' W 094°59'0 0.0
2016-Jun-15 05:33N 29°41' W 094°59'5 5.1
2016-Jun-15 04:34N 29°45' W 095°04'0 0.0
2016-Jun-15 03:21N 29°45' W 095°04'4 4.6
2016-Jun-15 02:33N 29°42' W 095°01'  
Track history (hours):
 
Tides and Currents Weather Stations Pressure Air Temp Water Temp Dewpoint Dewpoint Depression Visibility Wind Speed Wind Dir Waves Ship Positions

Alexandra

Owner: Weeks Marine, Inc., Cranford, NJ. More information available from US FCC via Universal Licensing System and Coast Guard Vessel Documentation Center.

Last reported at 2016-Jun-25 02:12 UTC. Time now 2016-Jun-30 23:15 UTC.
Position N 29°33' W 094°55'.

Length 40 m; draft 5 m.

Type: Tug. MMSI: 367161950.

Date/timePositionNaut miles runAvg speedWind from/ knotsBaromVisibWave heightAir tempDewpointWater temp
2016-Jun-25 02:12N 29°33' W 094°55'4 6.1
2016-Jun-25 01:33N 29°36' W 094°57'5 5.1
2016-Jun-25 00:33N 29°41' W 094°60'1 0.7
2016-Jun-24 23:33N 29°41' W 095°00'0 0.0
2016-Jun-24 22:32N 29°41' W 095°00'0 0.0
2016-Jun-24 21:33N 29°41' W 095°00'0 0.0
2016-Jun-24 20:33N 29°41' W 095°00'0 0.0
2016-Jun-24 19:33N 29°41' W 095°00'1 1.1
2016-Jun-24 18:33N 29°41' W 094°59'5 1.2
2016-Jun-24 14:24N 29°45' W 095°04'4 5.3
2016-Jun-24 13:33N 29°41' W 095°00'0 0.1
2016-Jun-24 12:33N 29°41' W 095°00'0 0.0
2016-Jun-24 11:33N 29°41' W 095°00'0 0.0
2016-Jun-24 10:33N 29°41' W 095°00'0 0.0
2016-Jun-24 09:31N 29°41' W 095°00'0 0.0
2016-Jun-24 08:33N 29°41' W 095°00'0 0.0
2016-Jun-24 07:33N 29°41' W 095°00'5 1.5
2016-Jun-24 04:33N 29°45' W 095°04'0 0.0
2016-Jun-24 02:15N 29°45' W 095°04'4 5.1
2016-Jun-24 01:33N 29°42' W 095°01'1 1.5
2016-Jun-24 00:33N 29°41' W 094°59'0 0.0
2016-Jun-23 23:33N 29°41' W 094°59'1 0.9
2016-Jun-23 22:33N 29°41' W 095°00'3 3.4
2016-Jun-23 21:33N 29°44' W 095°02'1 0.7
2016-Jun-23 19:30N 29°45' W 095°04'4 4.5
2016-Jun-23 18:33N 29°42' W 095°00'1 0.9
2016-Jun-23 17:33N 29°41' W 094°59'0 0.4
2016-Jun-23 16:33N 29°41' W 094°59'4 3.7
2016-Jun-23 15:33N 29°44' W 095°02'2 1.3
2016-Jun-23 14:23N 29°45' W 095°04'1 0.9
2016-Jun-23 13:20N 29°44' W 095°03'1 0.8
2016-Jun-23 12:19N 29°44' W 095°02'3 1.9
2016-Jun-23 10:33N 29°41' W 094°59'3 2.9
2016-Jun-23 09:33N 29°44' W 095°01'2 1.6
2016-Jun-23 08:09N 29°45' W 095°04'3 4.0
2016-Jun-23 07:30N 29°43' W 095°01'3 1.3
2016-Jun-23 05:33N 29°41' W 094°59'5 2.4
2016-Jun-23 03:26N 29°45' W 095°04'5 5.8
2016-Jun-23 02:33N 29°41' W 094°59'0 0.0
2016-Jun-23 01:33N 29°41' W 094°59'4 1.8
2016-Jun-22 23:31N 29°44' W 095°02'4 3.8
2016-Jun-22 22:32N 29°41' W 094°59'0 0.3
2016-Jun-22 21:33N 29°41' W 094°59'5 4.7
2016-Jun-22 20:33N 29°44' W 095°03'1 0.7
2016-Jun-22 19:16N 29°44' W 095°02'4 5.1
2016-Jun-22 18:33N 29°41' W 094°59'0 0.0
2016-Jun-22 17:33N 29°41' W 094°59'5 4.9
2016-Jun-22 16:33N 29°45' W 095°04'0 0.0
2016-Jun-22 10:08N 29°45' W 095°04'0 0.0
2016-Jun-22 08:30N 29°45' W 095°04'0 0.0
2016-Jun-22 07:29N 29°45' W 095°04'0 0.0
2016-Jun-22 06:31N 29°45' W 095°04'0 0.0
2016-Jun-22 05:31N 29°45' W 095°04'0 0.0
2016-Jun-22 04:33N 29°45' W 095°04'0 0.0
2016-Jun-22 03:30N 29°45' W 095°04'0 0.0
2016-Jun-22 01:31N 29°45' W 095°04'0 0.0
2016-Jun-22 00:28N 29°45' W 095°04'0 0.0
2016-Jun-21 23:33N 29°45' W 095°04'5 4.8
2016-Jun-21 22:32N 29°41' W 094°59'0 0.2
2016-Jun-21 21:29N 29°41' W 094°59'0 0.0
2016-Jun-21 20:33N 29°41' W 094°59'0 0.0
2016-Jun-21 19:30N 29°41' W 094°59'0 0.0
2016-Jun-21 18:33N 29°41' W 094°59'0 0.0
2016-Jun-21 17:33N 29°41' W 094°59'5 5.0
2016-Jun-21 16:32N 29°45' W 095°04'0 0.0
2016-Jun-21 15:30N 29°45' W 095°04'4 4.5
2016-Jun-21 14:33N 29°42' W 094°60'1 0.8
2016-Jun-21 13:33N 29°41' W 094°59'0 0.1
2016-Jun-21 12:33N 29°41' W 094°59'5 5.1
2016-Jun-21 11:33N 29°45' W 095°04'1 1.1
2016-Jun-21 10:28N 29°44' W 095°03'4 4.3
2016-Jun-21 09:33N 29°41' W 094°59'0 0.0
2016-Jun-21 08:33N 29°41' W 094°59'0 0.0
2016-Jun-21 01:31N 29°41' W 094°59'0 0.0
2016-Jun-21 00:33N 29°41' W 094°59'0 0.0
2016-Jun-20 23:33N 29°41' W 094°59'0 0.0
2016-Jun-20 22:33N 29°41' W 094°59'0 0.0
2016-Jun-20 21:33N 29°41' W 094°59'2 2.5
2016-Jun-20 20:33N 29°43' W 095°01'3 2.4
2016-Jun-20 19:24N 29°45' W 095°04'1 1.3
2016-Jun-20 18:27N 29°44' W 095°03'4 4.4
2016-Jun-20 17:33N 29°41' W 094°59'0 0.0
2016-Jun-20 16:32N 29°41' W 094°59'1 0.6
2016-Jun-20 15:33N 29°42' W 094°60'5 4.4
2016-Jun-20 14:31N 29°45' W 095°04'0 0.0
2016-Jun-20 13:33N 29°45' W 095°04'0 0.0
2016-Jun-20 12:33N 29°45' W 095°04'1 0.8
2016-Jun-20 11:32N 29°44' W 095°03'4 4.4
2016-Jun-20 10:33N 29°41' W 094°59'0 0.0
2016-Jun-20 09:33N 29°41' W 094°59'4 4.1
2016-Jun-20 08:33N 29°44' W 095°03'1 0.4
2016-Jun-20 06:31N 29°44' W 095°04'2 2.3
2016-Jun-20 05:31N 29°43' W 095°01'3 1.4
2016-Jun-20 03:33N 29°41' W 094°59'5 3.6
2016-Jun-20 02:07N 29°45' W 095°04'0 0.0
2016-Jun-20 01:06N 29°45' W 095°04'3 4.9
2016-Jun-20 00:33N 29°43' W 095°01'2 2.4
2016-Jun-19 23:32N 29°41' W 094°59'2 1.8
2016-Jun-19 22:32N 29°42' W 095°01'3 2.4
2016-Jun-19 21:08N 29°45' W 095°04'0 0.0
2016-Jun-19 20:32N 29°45' W 095°04'1 1.2
2016-Jun-19 19:24N 29°44' W 095°02'4 4.3
2016-Jun-19 18:33N 29°41' W 094°59'0 0.0
2016-Jun-19 17:32N 29°41' W 094°59'5 4.6
2016-Jun-19 16:33N 29°44' W 095°03'3 1.8
2016-Jun-19 14:33N 29°42' W 095°00'1 0.5
2016-Jun-19 12:33N 29°41' W 094°59'3 1.4
2016-Jun-19 10:19N 29°44' W 095°02'3 4.3
2016-Jun-19 09:33N 29°41' W 094°59'0 0.0
2016-Jun-19 08:33N 29°41' W 094°59'5 4.5
2016-Jun-19 07:33N 29°44' W 095°03'1 0.6
2016-Jun-19 06:29N 29°45' W 095°04'4 1.3
2016-Jun-19 03:33N 29°42' W 095°00'4 3.1
2016-Jun-19 02:18N 29°45' W 095°04'0 0.2
2016-Jun-19 01:27N 29°44' W 095°04'3 2.7
2016-Jun-19 00:30N 29°43' W 095°01'2 2.6
2016-Jun-18 23:33N 29°41' W 094°59'0 0.0
2016-Jun-18 22:33N 29°41' W 094°59'5 4.6
2016-Jun-18 21:26N 29°45' W 095°04'1 1.0
2016-Jun-18 20:13N 29°44' W 095°03'3 4.2
2016-Jun-18 19:33N 29°42' W 095°00'1 1.1
2016-Jun-18 18:33N 29°41' W 094°59'0 0.0
2016-Jun-18 17:34N 29°41' W 094°59'1 0.5
2016-Jun-18 16:33N 29°42' W 094°60'5 2.2
2016-Jun-18 14:26N 29°45' W 095°04'1 0.7
2016-Jun-18 13:33N 29°44' W 095°03'3 2.9
2016-Jun-18 12:33N 29°42' W 095°01'2 1.6
2016-Jun-18 11:33N 29°41' W 094°59'2 1.9
2016-Jun-18 10:32N 29°42' W 095°01'3 3.0
2016-Jun-18 09:28N 29°45' W 095°04'1 1.0
2016-Jun-18 08:23N 29°44' W 095°03'4 4.8
2016-Jun-18 07:32N 29°41' W 094°59'0 0.0
2016-Jun-18 06:33N 29°41' W 094°59'5 2.3
2016-Jun-18 04:22N 29°45' W 095°04'0 0.0
2016-Jun-18 03:31N 29°45' W 095°04'0 0.0
2016-Jun-17 23:24N 29°45' W 095°04'0 0.0
2016-Jun-17 20:25N 29°45' W 095°04'0 0.0
2016-Jun-17 19:28N 29°45' W 095°04'0 0.0
2016-Jun-17 18:33N 29°45' W 095°04'2 1.8
2016-Jun-17 17:30N 29°44' W 095°02'3 3.5
2016-Jun-17 16:33N 29°41' W 094°59'0 0.0
2016-Jun-17 15:33N 29°41' W 094°59'2 2.2
2016-Jun-17 14:33N 29°43' W 095°01'3 1.5
2016-Jun-17 12:33N 29°45' W 095°04'1 1.2
2016-Jun-17 11:25N 29°44' W 095°02'4 4.4
2016-Jun-17 10:33N 29°41' W 094°59'5 1.6
2016-Jun-17 07:25N 29°45' W 095°04'1 0.6
2016-Jun-17 06:09N 29°44' W 095°03'4 6.9
2016-Jun-17 05:32N 29°41' W 094°59'0 0.1
2016-Jun-17 04:33N 29°41' W 094°59'1 0.9
2016-Jun-17 03:33N 29°41' W 095°00'5 2.3
2016-Jun-17 01:33N 29°45' W 095°04'0 0.0
2016-Jun-17 00:33N 29°45' W 095°04'0 0.0
2016-Jun-16 23:33N 29°45' W 095°04'5 5.1
2016-Jun-16 22:33N 29°41' W 094°59'0 0.0
2016-Jun-16 21:33N 29°41' W 094°59'4 4.0
2016-Jun-16 20:33N 29°44' W 095°03'1 1.2
2016-Jun-16 19:33N 29°45' W 095°04'3 3.2
2016-Jun-16 18:33N 29°42' W 095°01'2 1.9
2016-Jun-16 17:33N 29°41' W 094°59'5 4.6
2016-Jun-16 16:28N 29°45' W 095°04'0 0.0
2016-Jun-16 15:08N 29°45' W 095°04'0 0.0
2016-Jun-16 13:15N 29°45' W 095°04'0 0.2
2016-Jun-16 12:33N 29°45' W 095°04'0 0.0
2016-Jun-16 11:32N 29°45' W 095°04'5 5.1
2016-Jun-16 10:32N 29°41' W 094°59'0 0.0
2016-Jun-16 09:34N 29°41' W 094°59'5 2.1
2016-Jun-16 07:08N 29°45' W 095°04'1 1.4
2016-Jun-16 06:27N 29°44' W 095°03'4 4.6
2016-Jun-16 05:33N 29°41' W 094°59'0 0.0
2016-Jun-16 04:33N 29°41' W 094°59'5 3.6
2016-Jun-16 03:08N 29°45' W 095°04'1 1.4
2016-Jun-16 02:30N 29°44' W 095°03'4 4.5
2016-Jun-16 01:33N 29°41' W 094°59'1 1.0
2016-Jun-16 00:31N 29°42' W 095°00'4 4.0
2016-Jun-15 23:31N 29°45' W 095°04'0 0.0
2016-Jun-15 22:31N 29°45' W 095°04'2 0.8
2016-Jun-15 19:31N 29°43' W 095°01'2 2.1
2016-Jun-15 18:20N 29°45' W 095°04'0 0.2
2016-Jun-15 17:29N 29°45' W 095°04'3 2.9
2016-Jun-15 16:33N 29°43' W 095°01'2 2.3
2016-Jun-15 15:33N 29°41' W 094°59'0 0.1
2016-Jun-15 14:33N 29°41' W 094°59'5 2.5
2016-Jun-15 12:32N 29°45' W 095°04'3 3.2
2016-Jun-15 11:33N 29°43' W 095°01'2 2.0
2016-Jun-15 10:33N 29°41' W 094°59'3 2.6
2016-Jun-15 09:33N 29°43' W 095°01'3 2.3
2016-Jun-15 08:27N 29°45' W 095°04'3 3.5
2016-Jun-15 07:33N 29°42' W 095°01'2 2.0
2016-Jun-15 06:33N 29°41' W 094°59'0 0.0
2016-Jun-15 05:33N 29°41' W 094°59'5 5.1
2016-Jun-15 04:34N 29°45' W 095°04'0 0.0
2016-Jun-15 03:21N 29°45' W 095°04'4 4.6
2016-Jun-15 02:33N 29°42' W 095°01'  

Dump ship's entire track history